Time;durP1;ratioP1;P1;durP2;ratioP2;P2;SDS_P1;SDS_P2;PMS_P1;PMS_P2;Temp;Humidity;BMP_temperature;BMP_pressure;BME280_temperature;BME280_humidity;BME280_pressure;Samples;Min_cycle;Max_cycle;Signal;HPM_P1;HPM_P2
2022/08/02 00:00:39;;;;;;;19.30;8.50;;;;;;;17.66;60.94;98895.11;107952;1274;106003;-66
2022/08/02 00:03:09;;;;;;;18.40;8.20;;;;;;;17.67;60.89;98903.11;107996;1274;95772;-67
2022/08/02 00:05:37;;;;;;;19.50;7.80;;;;;;;17.67;60.99;98899.31;107956;1275;95610;-67
2022/08/02 00:08:06;;;;;;;20.80;8.00;;;;;;;17.73;61.30;98900.20;107985;1274;111478;-66
2022/08/02 00:10:34;;;;;;;18.10;8.00;;;;;;;17.75;61.23;98898.13;107974;1274;95672;-67
2022/08/02 00:13:02;;;;;;;18.80;7.80;;;;;;;17.78;61.31;98896.46;107955;1274;107686;-67
2022/08/02 00:15:30;;;;;;;18.90;7.50;;;;;;;17.81;60.99;98894.29;107917;1274;95875;-67
2022/08/02 00:17:58;;;;;;;17.50;7.60;;;;;;;17.79;61.38;98894.75;107960;1274;95591;-67
2022/08/02 00:20:25;;;;;;;19.40;7.00;;;;;;;17.82;61.26;98896.88;107924;1275;111546;-66
2022/08/02 00:22:53;;;;;;;13.60;7.10;;;;;;;17.80;61.20;98890.13;107930;1275;95688;-67
2022/08/02 00:25:21;;;;;;;16.60;7.20;;;;;;;17.75;61.22;98885.77;107989;1273;107798;-67
2022/08/02 00:27:49;;;;;;;18.70;7.10;;;;;;;17.76;61.39;98891.85;107934;1275;95694;-67
2022/08/02 00:30:17;;;;;;;14.90;6.80;;;;;;;17.74;61.27;98888.23;107985;1274;95584;-66
2022/08/02 00:32:44;;;;;;;16.30;7.30;;;;;;;17.69;61.34;98889.31;107983;1274;111563;-67
2022/08/02 00:35:12;;;;;;;15.80;7.00;;;;;;;17.60;61.21;98889.56;107970;1274;95861;-67
2022/08/02 00:37:40;;;;;;;18.20;7.60;;;;;;;17.57;61.43;98889.66;107960;1274;107836;-67
2022/08/02 00:40:09;;;;;;;15.80;7.50;;;;;;;17.54;61.78;98888.34;107923;1276;95662;-67
2022/08/02 00:42:38;;;;;;;17.30;7.30;;;;;;;17.56;61.63;98894.89;107943;1275;95617;-68
2022/08/02 00:45:07;;;;;;;16.20;7.10;;;;;;;17.57;61.89;98887.48;108001;1274;111610;-67
2022/08/02 00:47:35;;;;;;;14.50;7.00;;;;;;;17.65;62.01;98891.88;107977;1274;96012;-67
2022/08/02 00:50:03;;;;;;;16.30;6.90;;;;;;;17.70;62.19;98891.30;107954;1274;107807;-67
2022/08/02 00:52:31;;;;;;;15.70;7.10;;;;;;;17.77;62.26;98889.58;107956;1274;95627;-68
2022/08/02 00:54:58;;;;;;;17.80;7.50;;;;;;;17.83;62.18;98890.14;108002;1273;95647;-67
2022/08/02 00:57:26;;;;;;;15.60;7.20;;;;;;;17.88;62.26;98891.77;107926;1276;111656;-67
2022/08/02 00:59:54;;;;;;;15.80;6.80;;;;;;;17.92;62.43;98891.73;107996;1274;95647;-67
2022/08/02 01:02:22;;;;;;;15.70;7.10;;;;;;;17.98;62.40;98895.04;107963;1274;107753;-68
2022/08/02 01:04:49;;;;;;;14.30;7.40;;;;;;;18.02;62.41;98900.37;107957;1274;95651;-67
2022/08/02 01:07:17;;;;;;;15.50;7.00;;;;;;;18.05;62.59;98900.25;107955;1274;95673;-68
2022/08/02 01:09:45;;;;;;;15.90;6.70;;;;;;;18.06;62.54;98899.44;107920;1276;111417;-67
2022/08/02 01:12:13;;;;;;;17.10;7.70;;;;;;;18.10;62.50;98901.40;107963;1274;95973;-68
2022/08/02 01:14:45;;;;;;;16.70;6.70;;;;;;;18.13;62.71;98906.59;107925;1276;107781;-66
2022/08/02 01:17:21;;;;;;;15.40;7.40;;;;;;;18.12;62.66;98902.23;107968;1274;95591;-68
2022/08/02 01:20:13;;;;;;;18.50;7.30;;;;;;;18.12;62.65;98900.10;107944;1276;95607;-68
2022/08/02 01:23:08;;;;;;;17.30;7.60;;;;;;;18.07;62.62;98902.70;107864;1274;111586;-67
2022/08/02 01:26:18;;;;;;;18.90;7.80;;;;;;;18.07;62.69;98905.98;107955;1274;95685;-71
2022/08/02 01:28:52;;;;;;;17.10;7.70;;;;;;;18.06;62.94;98908.27;107967;1274;108677;-67
2022/08/02 01:31:41;;;;;;;14.60;7.50;;;;;;;18.07;62.98;98902.08;107961;1274;95615;-67
2022/08/02 01:34:29;;;;;;;19.00;7.10;;;;;;;18.05;63.10;98900.63;108009;1274;95571;-66
2022/08/02 01:37:14;;;;;;;16.90;7.00;;;;;;;18.06;62.91;98896.98;107967;1274;111400;-66
2022/08/02 01:39:44;;;;;;;16.10;7.10;;;;;;;18.04;63.04;98895.13;107977;1274;95800;-66
2022/08/02 01:42:14;;;;;;;18.10;7.00;;;;;;;18.03;63.04;98899.04;107964;1274;107837;-66
2022/08/02 01:44:43;;;;;;;14.80;6.70;;;;;;;18.04;63.24;98897.75;107952;1274;95637;-66
2022/08/02 01:47:18;;;;;;;18.60;6.60;;;;;;;18.02;63.16;98899.34;107983;1274;95584;-67
2022/08/02 01:49:51;;;;;;;15.00;6.90;;;;;;;18.01;63.22;98904.98;107858;1274;111578;-67
2022/08/02 01:52:21;;;;;;;;;;;;;;;17.97;63.17;98905.39;107996;1274;95648;-68
2022/08/02 01:54:55;;;;;;;17.50;7.40;;;;;;;17.94;63.32;98914.00;107855;1274;107797;-67
2022/08/02 01:57:26;;;;;;;13.40;6.70;;;;;;;17.90;63.29;98917.77;107982;1274;95774;-67
2022/08/02 01:59:59;;;;;;;15.40;7.40;;;;;;;17.87;63.22;98919.71;107992;1274;95658;-67
2022/08/02 02:02:31;;;;;;;17.80;7.30;;;;;;;17.79;63.13;98909.65;107969;1274;110279;-67
2022/08/02 02:05:01;;;;;;;19.20;7.70;;;;;;;17.71;63.26;98906.99;107979;1274;95629;-67
2022/08/02 02:07:32;;;;;;;18.60;7.20;;;;;;;17.68;63.34;98899.92;107948;1274;107834;-67
2022/08/02 02:10:02;;;;;;;16.80;7.50;;;;;;;17.67;63.33;98901.34;107963;1274;95654;-67
2022/08/02 02:12:33;;;;;;;17.70;7.80;;;;;;;17.66;63.42;98901.02;107990;1274;95646;-67
2022/08/02 02:15:03;;;;;;;19.20;8.10;;;;;;;17.67;63.52;98896.89;107955;1274;111031;-68
2022/08/02 02:17:32;;;;;;;16.30;7.60;;;;;;;17.67;63.49;98894.91;107985;1274;95634;-67
2022/08/02 02:20:21;;;;;;;17.60;8.30;;;;;;;17.67;63.72;98896.83;107956;1274;108040;-67
2022/08/02 02:22:49;;;;;;;19.50;8.20;;;;;;;17.66;63.62;98900.15;107968;1273;95617;-67
2022/08/02 02:25:19;;;;;;;21.00;8.20;;;;;;;17.66;63.69;98897.73;107849;1274;96029;-66
2022/08/02 02:28:29;;;;;;;18.90;8.30;;;;;;;17.63;63.77;98894.94;107972;1274;111575;-67
2022/08/02 02:31:10;;;;;;;20.20;7.90;;;;;;;17.56;63.46;98902.66;107848;1274;95717;-68
2022/08/02 02:34:13;;;;;;;16.50;7.40;;;;;;;17.48;63.81;98905.83;107975;1274;107918;-67
2022/08/02 02:36:51;;;;;;;15.40;7.50;;;;;;;17.48;63.73;98906.96;107393;1276;95694;-67
2022/08/02 02:39:25;;;;;;;17.90;7.50;;;;;;;17.41;63.64;98905.27;107977;1274;95611;-67
2022/08/02 02:41:57;;;;;;;16.20;7.50;;;;;;;17.29;63.47;98898.80;107958;1274;111536;-67
2022/08/02 02:44:25;;;;;;;18.30;7.80;;;;;;;17.17;63.55;98903.29;107980;1274;95687;-68
2022/08/02 02:46:55;;;;;;;18.80;7.80;;;;;;;17.05;63.43;98905.77;107966;1274;107649;-66
2022/08/02 02:49:24;;;;;;;17.40;8.30;;;;;;;16.95;63.65;98909.05;107989;1274;95618;-67
2022/08/02 02:51:54;;;;;;;22.00;8.60;;;;;;;16.88;63.56;98909.91;107970;1274;95653;-67
2022/08/02 02:54:24;;;;;;;23.30;8.30;;;;;;;16.77;63.63;98909.89;107969;1274;111541;-66
2022/08/02 02:57:03;;;;;;;16.60;7.70;;;;;;;16.71;64.07;98914.70;107988;1274;95693;-67
2022/08/02 02:59:33;;;;;;;17.70;8.50;;;;;;;16.70;64.46;98916.79;107965;1274;107837;-66
2022/08/02 03:02:03;;;;;;;19.10;9.10;;;;;;;16.73;64.23;98914.65;107953;1274;95644;-67
2022/08/02 03:04:34;;;;;;;19.00;8.30;;;;;;;16.68;63.89;98912.27;107996;1274;95581;-67
2022/08/02 03:07:22;;;;;;;20.80;8.30;;;;;;;16.57;64.03;98915.27;107968;1274;112411;-67
2022/08/02 03:09:51;;;;;;;24.70;9.30;;;;;;;16.53;64.41;98919.18;107978;1274;95668;-68
2022/08/02 03:12:23;;;;;;;17.70;8.70;;;;;;;16.54;64.39;98916.91;107952;1274;107693;-67
2022/08/02 03:15:04;;;;;;;14.90;7.70;;;;;;;16.57;64.74;98915.86;107966;1274;95689;-67
2022/08/02 03:17:44;;;;;;;17.50;8.50;;;;;;;16.62;64.74;98914.70;107852;1274;95597;-68
2022/08/02 03:20:14;;;;;;;15.80;7.70;;;;;;;16.67;64.89;98910.39;107832;1274;111181;-68
2022/08/02 03:22:43;;;;;;;19.60;9.30;;;;;;;16.69;64.52;98914.73;107864;1274;95702;-68
2022/08/02 03:25:13;;;;;;;19.60;8.50;;;;;;;16.61;64.66;98915.50;107979;1274;107829;-68
2022/08/02 03:27:41;;;;;;;20.00;8.90;;;;;;;16.60;64.85;98919.39;107964;1274;95615;-67
2022/08/02 03:30:12;;;;;;;18.50;8.40;;;;;;;16.64;65.23;98921.83;107979;1274;95625;-68
2022/08/02 03:32:43;;;;;;;16.50;7.90;;;;;;;16.68;65.09;98923.02;107977;1274;111260;-68
2022/08/02 03:35:15;;;;;;;16.00;8.40;;;;;;;16.76;65.32;98923.98;107977;1274;95752;-67
2022/08/02 03:37:53;;;;;;;17.30;8.40;;;;;;;16.82;65.34;98922.50;107977;1274;108297;-68
2022/08/02 03:40:22;;;;;;;16.70;8.30;;;;;;;16.87;65.24;98929.05;107964;1274;95662;-67
2022/08/02 03:42:50;;;;;;;20.00;8.80;;;;;;;16.87;65.34;98921.15;107994;1274;95664;-68
2022/08/02 03:45:19;;;;;;;16.90;8.60;;;;;;;16.93;65.43;98927.36;107886;1275;110260;-68
2022/08/02 03:47:47;;;;;;;19.30;8.60;;;;;;;16.97;65.52;98929.45;107974;1274;95638;-68
2022/08/02 03:50:15;;;;;;;18.20;8.60;;;;;;;17.00;65.66;98930.23;107604;1274;495730;-68
2022/08/02 03:52:46;;;;;;;16.40;8.80;;;;;;;17.06;65.62;98936.42;107837;1274;95790;-67
2022/08/02 03:55:14;;;;;;;18.70;8.70;;;;;;;17.08;65.45;98936.23;107967;1274;95653;-67
2022/08/02 03:57:42;;;;;;;20.70;8.80;;;;;;;17.00;65.18;98932.63;107958;1274;111071;-68
2022/08/02 04:00:16;;;;;;;18.70;8.80;;;;;;;16.88;65.15;98938.77;107981;1274;95702;-67
2022/08/02 04:02:45;;;;;;;21.50;8.80;;;;;;;16.85;65.64;98937.83;107919;1274;107831;-67
2022/08/02 04:05:13;;;;;;;19.00;8.80;;;;;;;16.88;65.98;98936.45;107937;1274;95709;-67
2022/08/02 04:07:42;;;;;;;17.80;9.00;;;;;;;16.96;65.95;98938.90;107961;1274;95633;-67
2022/08/02 04:10:30;;;;;;;18.40;9.40;;;;;;;17.02;66.14;98941.52;107955;1274;111487;-68
2022/08/02 04:12:58;;;;;;;18.10;9.40;;;;;;;17.07;66.06;98944.78;107975;1274;95758;-66
2022/08/02 04:15:26;;;;;;;18.40;8.90;;;;;;;17.13;66.10;98947.58;107931;1274;107839;-67
2022/08/02 04:17:58;;;;;;;18.40;9.80;;;;;;;17.18;66.10;98950.45;107944;1274;95670;-67
2022/08/02 04:20:32;;;;;;;20.60;9.40;;;;;;;17.25;66.38;98960.46;107978;1274;95686;-67
2022/08/02 04:23:09;;;;;;;17.30;8.70;;;;;;;17.31;66.20;98960.14;107964;1274;111236;-66
2022/08/02 04:25:38;;;;;;;18.10;8.70;;;;;;;17.28;65.99;98959.98;107960;1274;95778;-67
2022/08/02 04:28:09;;;;;;;17.80;8.20;;;;;;;17.18;65.70;98967.83;107934;1274;107827;-64
2022/08/02 04:30:46;;;;;;;17.00;8.50;;;;;;;17.05;65.71;98968.41;107912;1274;95887;-66
2022/08/02 04:33:15;;;;;;;21.30;9.80;;;;;;;16.97;66.08;98970.84;107943;1274;95650;-68
2022/08/02 04:35:43;;;;;;;17.00;9.10;;;;;;;16.92;65.87;98974.72;107940;1274;111467;-67
2022/08/02 04:38:13;;;;;;;17.20;8.30;;;;;;;16.87;65.81;98977.96;107953;1273;95700;-67
2022/08/02 04:40:50;;;;;;;18.20;9.00;;;;;;;16.80;66.08;98974.81;107872;1274;107896;-67
2022/08/02 04:43:18;;;;;;;21.10;9.20;;;;;;;16.76;66.26;98972.39;107818;1275;95744;-67
2022/08/02 04:45:53;;;;;;;21.00;8.60;;;;;;;16.75;66.33;98971.38;107984;1274;95977;-67
2022/08/02 04:48:21;;;;;;;21.30;9.20;;;;;;;16.77;66.62;98975.35;107976;1274;110526;-67
2022/08/02 04:50:49;;;;;;;18.00;8.60;;;;;;;16.83;66.80;98977.59;107978;1274;95653;-68
2022/08/02 04:53:17;;;;;;;18.90;9.40;;;;;;;16.93;66.98;98979.62;107975;1274;106683;-66
2022/08/02 04:55:45;;;;;;;22.20;10.20;;;;;;;17.03;67.12;98983.70;107972;1274;95995;-67
2022/08/02 04:58:13;;;;;;;19.40;9.80;;;;;;;17.13;67.19;98984.88;107989;1274;96008;-67
2022/08/02 05:01:01;;;;;;;22.00;10.80;;;;;;;17.23;67.17;98980.23;107978;1274;111089;-67
2022/08/02 05:03:29;;;;;;;21.40;10.30;;;;;;;17.32;67.24;98983.67;107974;1274;96057;-66
2022/08/02 05:05:59;;;;;;;18.10;9.60;;;;;;;17.41;67.27;98990.04;107982;1274;106826;-68
2022/08/02 05:08:27;;;;;;;18.40;9.00;;;;;;;17.52;67.34;98993.59;107895;1274;96043;-67
2022/08/02 05:10:54;;;;;;;20.70;9.70;;;;;;;17.59;67.36;98990.37;107957;1274;95641;-66
2022/08/02 05:13:22;;;;;;;20.80;11.10;;;;;;;17.69;67.40;98991.73;107946;1274;110242;-67
2022/08/02 05:15:50;;;;;;;23.20;10.70;;;;;;;17.80;67.20;98989.61;107982;1274;95645;-67
2022/08/02 05:18:18;;;;;;;24.90;11.00;;;;;;;17.83;67.04;98987.69;107969;1274;107750;-68
2022/08/02 05:20:46;;;;;;;21.10;11.30;;;;;;;17.87;67.07;98989.32;107882;1276;95627;-67
2022/08/02 05:23:15;;;;;;;19.10;10.80;;;;;;;17.94;67.35;98989.30;107989;1274;95575;-67
2022/08/02 05:25:43;;;;;;;22.70;11.80;;;;;;;18.02;67.45;98992.07;107971;1274;111596;-67
2022/08/02 05:28:10;;;;;;;21.50;12.90;;;;;;;18.16;67.70;98994.78;107950;1274;95707;-68
2022/08/02 05:30:39;;;;;;;22.30;12.90;;;;;;;18.30;67.73;99001.70;107960;1274;108304;-67
2022/08/02 05:33:07;;;;;;;25.60;13.80;;;;;;;18.43;67.81;99002.69;107972;1274;96037;-67
2022/08/02 05:35:35;;;;;;;23.10;13.10;;;;;;;18.55;67.76;99002.11;107962;1274;95671;-68
2022/08/02 05:38:03;;;;;;;22.70;13.50;;;;;;;18.64;67.94;98995.12;107939;1274;110482;-67
2022/08/02 05:40:31;;;;;;;22.50;13.60;;;;;;;18.75;67.84;98997.96;108012;1274;95697;-68
2022/08/02 05:42:58;;;;;;;23.20;12.90;;;;;;;18.89;67.83;98995.42;107980;1274;107929;-68
2022/08/02 05:45:27;;;;;;;21.30;12.70;;;;;;;19.00;67.91;98992.25;107986;1274;95607;-68
2022/08/02 05:47:54;;;;;;;24.00;13.10;;;;;;;19.10;67.94;98992.13;107984;1274;95564;-68
2022/08/02 05:50:22;;;;;;;23.00;13.30;;;;;;;19.23;67.97;98996.81;107976;1274;111469;-68
2022/08/02 05:52:59;;;;;;;21.50;12.40;;;;;;;19.34;68.01;98996.19;107986;1274;95666;-66
2022/08/02 05:55:33;;;;;;;20.40;12.60;;;;;;;19.41;68.12;98994.86;107988;1274;107540;-67
2022/08/02 05:58:11;;;;;;;21.50;12.50;;;;;;;19.52;68.05;98998.15;107969;1274;95607;-67
2022/08/02 06:00:41;;;;;;;25.30;13.40;;;;;;;19.60;68.10;98997.02;108001;1274;95568;-67
2022/08/02 06:03:31;;;;;;;22.00;13.30;;;;;;;19.69;67.95;98998.79;107985;1274;111482;-68
2022/08/02 06:06:04;;;;;;;21.30;12.40;;;;;;;19.77;68.07;98994.65;108011;1274;95811;-68
2022/08/02 06:08:38;;;;;;;20.90;12.20;;;;;;;19.87;68.08;98995.48;107968;1274;107917;-67
2022/08/02 06:11:20;;;;;;;21.00;12.00;;;;;;;19.98;68.12;99002.73;107982;1274;95637;-68
2022/08/02 06:13:48;;;;;;;20.60;12.50;;;;;;;20.06;68.14;99006.99;107983;1274;95635;-68
2022/08/02 06:16:16;;;;;;;20.80;12.50;;;;;;;20.15;68.09;99006.37;107985;1274;111184;-67
2022/08/02 06:18:59;;;;;;;20.30;12.00;;;;;;;20.23;68.04;99007.09;108000;1274;95731;-68
2022/08/02 06:21:28;;;;;;;20.80;11.50;;;;;;;20.29;68.12;99009.81;107966;1274;107715;-68
2022/08/02 06:24:18;;;;;;;20.20;11.90;;;;;;;20.40;68.11;99012.95;107994;1274;95643;-68
2022/08/02 06:26:51;;;;;;;20.80;12.70;;;;;;;20.49;68.14;99020.14;107987;1274;95603;-68
2022/08/02 06:29:20;;;;;;;20.90;11.80;;;;;;;20.55;68.04;99020.22;107972;1274;111555;-68
2022/08/02 06:31:51;;;;;;;21.60;11.60;;;;;;;20.63;68.20;99023.48;107998;1274;96090;-68
2022/08/02 06:34:19;;;;;;;21.00;11.60;;;;;;;20.70;68.16;99024.14;107996;1274;107847;-70
2022/08/02 06:37:07;;;;;;;19.00;11.90;;;;;;;20.78;68.20;99024.03;107984;1274;95632;-68
2022/08/02 06:39:43;;;;;;;23.50;12.40;;;;;;;20.84;68.12;99025.94;108000;1274;95672;-67
2022/08/02 06:42:14;;;;;;;24.20;11.60;;;;;;;20.92;68.18;99023.73;107987;1274;112255;-68
2022/08/02 06:44:42;;;;;;;21.70;11.10;;;;;;;21.02;68.17;99028.17;108005;1274;95634;-67
2022/08/02 06:47:16;;;;;;;23.10;12.40;;;;;;;21.14;68.18;99030.55;107978;1274;107852;-69
2022/08/02 06:49:44;;;;;;;20.10;10.90;;;;;;;21.25;68.26;99031.28;107978;1274;95606;-68
2022/08/02 06:52:22;;;;;;;19.00;10.60;;;;;;;21.40;68.16;99034.69;108005;1274;95699;-67
2022/08/02 06:54:59;;;;;;;19.50;11.40;;;;;;;21.54;68.18;99035.79;107999;1274;110982;-68
2022/08/02 06:57:28;;;;;;;21.00;11.10;;;;;;;21.74;68.14;99040.13;108003;1274;95687;-68
2022/08/02 06:59:59;;;;;;;22.00;11.10;;;;;;;21.91;68.05;99036.42;107972;1272;106646;-68
2022/08/02 07:02:29;;;;;;;20.80;11.70;;;;;;;22.04;68.15;99040.77;107994;1272;95708;-68
2022/08/02 07:04:57;;;;;;;22.30;12.50;;;;;;;22.17;67.89;99036.23;108007;1274;95593;-68
2022/08/02 07:07:26;;;;;;;22.50;13.20;;;;;;;22.32;67.90;99036.75;107983;1274;109439;-67
2022/08/02 07:09:54;;;;;;;22.50;12.00;;;;;;;22.49;67.93;99030.40;107985;1274;95856;-68
2022/08/02 07:12:29;;;;;;;21.20;12.00;;;;;;;22.69;67.68;99030.42;108009;1274;107968;-67
2022/08/02 07:15:03;;;;;;;21.00;11.70;;;;;;;22.97;67.79;99038.23;107953;1274;95667;-68
2022/08/02 07:17:31;;;;;;;23.60;12.60;;;;;;;23.22;67.56;99033.30;107896;1274;95772;-69
2022/08/02 07:19:59;;;;;;;23.20;11.30;;;;;;;23.36;67.75;99039.28;107967;1274;111555;-68
2022/08/02 07:22:28;;;;;;;20.70;10.90;;;;;;;23.60;67.37;99044.19;107988;1274;96048;-68
2022/08/02 07:24:57;;;;;;;19.80;11.40;;;;;;;24.48;66.67;99033.69;107994;1274;107763;-67
2022/08/02 07:27:27;;;;;;;18.70;10.20;;;;;;;25.24;66.66;99028.32;107980;1274;95622;-67
2022/08/02 07:29:55;;;;;;;19.80;10.60;;;;;;;25.21;67.33;99039.55;107860;1274;95584;-68
2022/08/02 07:32:28;;;;;;;22.50;10.60;;;;;;;25.14;67.07;99042.13;107983;1272;111485;-68
2022/08/02 07:34:57;;;;;;;19.70;10.20;;;;;;;25.09;67.28;99037.42;107991;1274;95688;-68
2022/08/02 07:37:27;;;;;;;19.20;10.60;;;;;;;25.00;67.14;99032.19;107999;1274;106731;-67
2022/08/02 07:40:15;;;;;;;17.70;9.90;;;;;;;24.80;67.16;99037.80;107865;1274;95674;-68
2022/08/02 07:42:53;;;;;;;18.80;10.10;;;;;;;24.47;66.86;99032.60;108020;1274;95559;-68
2022/08/02 07:45:26;;;;;;;31.00;9.90;;;;;;;24.30;67.01;99037.23;107890;1274;110534;-68
2022/08/02 07:47:55;;;;;;;18.60;9.70;;;;;;;24.19;66.93;99035.23;108005;1274;95703;-68
2022/08/02 07:50:23;;;;;;;18.90;10.60;;;;;;;24.10;66.85;99039.61;107995;1274;107819;-68
2022/08/02 07:52:51;;;;;;;20.30;10.30;;;;;;;23.99;66.74;99047.38;107983;1274;95696;-68
2022/08/02 07:55:25;;;;;;;19.60;10.40;;;;;;;23.98;66.55;99050.65;107888;1276;95986;-68
2022/08/02 07:58:09;;;;;;;23.20;11.60;;;;;;;23.99;66.50;99052.42;108006;1274;111511;-67
2022/08/02 08:00:42;;;;;;;;;;;;;;;23.93;66.39;99050.73;108021;1274;95713;-68
2022/08/02 08:03:10;;;;;;;20.50;10.50;;;;;;;23.87;66.45;99051.77;107888;1274;108044;-68
2022/08/02 08:05:38;;;;;;;17.80;10.60;;;;;;;23.82;66.33;99055.75;107994;1274;95626;-68
2022/08/02 08:08:06;;;;;;;19.40;11.00;;;;;;;23.76;66.21;99058.43;107890;1274;95690;-68
2022/08/02 08:10:39;;;;;;;19.40;10.30;;;;;;;23.69;66.07;99059.55;108000;1274;111403;-67
2022/08/02 08:13:07;;;;;;;18.30;11.40;;;;;;;23.66;66.18;99070.39;108001;1274;96101;-68
2022/08/02 08:15:34;;;;;;;18.40;11.20;;;;;;;23.69;66.04;99069.98;107975;1274;107900;-67
2022/08/02 08:18:02;;;;;;;19.90;11.80;;;;;;;23.70;65.91;99075.77;107972;1274;95654;-68
2022/08/02 08:20:31;;;;;;;19.00;11.40;;;;;;;23.68;66.00;99076.08;108027;1274;95586;-68
2022/08/02 08:22:59;;;;;;;20.70;12.00;;;;;;;23.68;65.72;99073.23;108013;1274;111491;-68
2022/08/02 08:25:27;;;;;;;22.50;12.00;;;;;;;23.67;65.81;99080.70;108006;1274;95722;-67
2022/08/02 08:27:55;;;;;;;20.60;12.30;;;;;;;23.59;65.42;99084.88;108007;1274;106408;-68
2022/08/02 08:30:23;;;;;;;20.20;11.80;;;;;;;23.47;65.61;99082.77;107965;1274;95615;-68
2022/08/02 08:32:51;;;;;;;23.20;11.90;;;;;;;23.40;65.68;99085.17;108009;1274;95617;-68
2022/08/02 08:35:19;;;;;;;22.60;12.10;;;;;;;23.36;65.52;99079.08;108013;1274;111531;-68
2022/08/02 08:37:48;;;;;;;19.10;11.90;;;;;;;23.27;65.40;99091.89;107982;1272;95718;-68
2022/08/02 08:40:17;;;;;;;19.50;12.40;;;;;;;23.17;65.43;99092.64;107967;1274;108292;-67
2022/08/02 08:42:46;;;;;;;20.20;12.10;;;;;;;23.15;65.38;99095.16;107971;1274;95696;-68
2022/08/02 08:45:15;;;;;;;20.20;12.70;;;;;;;23.13;65.29;99097.77;108012;1274;95639;-68
2022/08/02 08:47:52;;;;;;;19.70;12.00;;;;;;;23.10;65.41;99098.61;107986;1274;111813;-68
2022/08/02 08:50:29;;;;;;;19.20;12.40;;;;;;;23.07;65.51;99100.92;107995;1274;95986;-68
2022/08/02 08:53:05;;;;;;;22.70;13.90;;;;;;;23.04;65.28;99095.02;107883;1274;106684;-69
2022/08/02 08:55:35;;;;;;;21.90;14.30;;;;;;;23.05;65.40;99109.42;107858;1276;95589;-67
2022/08/02 08:58:04;;;;;;;19.10;12.90;;;;;;;23.01;65.06;99110.67;108016;1274;95710;-68
2022/08/02 09:00:35;;;;;;;19.90;13.30;;;;;;;22.95;65.23;99111.31;107984;1273;111620;-68
2022/08/02 09:03:04;;;;;;;21.50;13.50;;;;;;;22.87;65.19;99109.34;108018;1274;96088;-67
2022/08/02 09:05:37;;;;;;;22.70;13.30;;;;;;;22.85;65.34;99118.87;107976;1274;107831;-67
2022/08/02 09:08:05;;;;;;;20.90;13.80;;;;;;;22.81;65.13;99118.40;108010;1274;95627;-68
2022/08/02 09:10:47;;;;;;;23.10;13.50;;;;;;;22.75;65.20;99121.55;108018;1274;96018;-68
2022/08/02 09:13:30;;;;;;;19.00;12.30;;;;;;;22.73;65.31;99121.88;108005;1272;111553;-68
2022/08/02 09:16:12;;;;;;;19.00;12.60;;;;;;;22.69;65.03;99119.81;107991;1274;96033;-68
2022/08/02 09:18:43;;;;;;;19.80;13.40;;;;;;;22.70;65.15;99117.91;107977;1274;107935;-68
2022/08/02 09:21:14;;;;;;;20.80;13.50;;;;;;;22.66;64.94;99119.48;108002;1274;95679;-68
2022/08/02 09:23:45;;;;;;;22.40;11.70;;;;;;;22.65;64.98;99119.90;108014;1274;95595;-68
2022/08/02 09:26:15;;;;;;;18.90;12.00;;;;;;;22.65;65.05;99118.27;107881;1274;110311;-69
2022/08/02 09:28:46;;;;;;;18.80;12.00;;;;;;;22.62;65.25;99121.14;107905;1274;96050;-68
2022/08/02 09:31:17;;;;;;;20.90;12.60;;;;;;;22.59;64.89;99118.19;108008;1274;107931;-68
2022/08/02 09:33:51;;;;;;;22.50;12.50;;;;;;;22.56;65.05;99123.64;107982;1274;95654;-67
2022/08/02 09:36:20;;;;;;;22.40;12.10;;;;;;;22.50;65.27;99122.20;108005;1274;95591;-68
2022/08/02 09:38:54;;;;;;;19.40;11.00;;;;;;;22.50;65.14;99121.79;107915;1274;111462;-68
2022/08/02 09:41:25;;;;;;;17.40;10.90;;;;;;;22.53;65.17;99131.83;108003;1274;96021;-68
2022/08/02 09:43:55;;;;;;;16.50;10.00;;;;;;;22.56;65.21;99126.90;107975;1274;107916;-68
2022/08/02 09:46:38;;;;;;;17.10;9.70;;;;;;;22.56;65.12;99128.27;107999;1274;95659;-68
2022/08/02 09:49:10;;;;;;;17.80;10.10;;;;;;;22.54;65.09;99131.13;108016;1272;95645;-67
2022/08/02 09:51:44;;;;;;;18.30;9.40;;;;;;;22.50;64.95;99126.52;107991;1274;111635;-68
2022/08/02 09:54:17;;;;;;;17.00;9.90;;;;;;;22.47;65.02;99129.20;108011;1274;95653;-67
2022/08/02 09:56:50;;;;;;;17.40;10.40;;;;;;;22.42;64.94;99131.83;107975;1273;107907;-68
2022/08/02 09:59:19;;;;;;;14.60;8.10;;;;;;;22.40;65.20;99133.25;107974;1274;95678;-68
2022/08/02 10:01:48;;;;;;;17.20;9.20;;;;;;;22.40;65.05;99128.96;107877;1274;95652;-68
2022/08/02 10:04:30;;;;;;;15.90;8.50;;;;;;;22.44;65.30;99130.84;107973;1274;111545;-68
2022/08/02 10:07:03;;;;;;;14.70;8.50;;;;;;;22.44;65.04;99127.95;108003;1274;95738;-68
2022/08/02 10:09:32;;;;;;;14.50;8.20;;;;;;;22.43;65.21;99124.63;107953;1274;107798;-68
2022/08/02 10:12:00;;;;;;;16.90;8.60;;;;;;;22.44;65.17;99123.95;107864;1274;95729;-69
2022/08/02 10:14:32;;;;;;;14.00;8.20;;;;;;;22.47;65.12;99121.31;107993;1274;95565;-68
2022/08/02 10:17:00;;;;;;;15.20;8.10;;;;;;;22.47;65.00;99124.73;107931;1274;112438;-68
2022/08/02 10:19:27;;;;;;;14.30;8.20;;;;;;;22.46;65.17;99123.21;107997;1274;95950;-68
2022/08/02 10:22:16;;;;;;;15.10;8.50;;;;;;;22.45;64.87;99119.91;107964;1274;107802;-67
2022/08/02 10:24:47;;;;;;;12.40;8.00;;;;;;;22.45;65.19;99118.59;107973;1274;95704;-68
2022/08/02 10:27:20;;;;;;;15.30;8.80;;;;;;;22.48;65.18;99118.28;107993;1274;96127;-68
2022/08/02 10:29:49;;;;;;;11.00;6.70;;;;;;;22.50;65.05;99117.48;107983;1274;111549;-68
2022/08/02 10:32:36;;;;;;;13.40;8.10;;;;;;;22.50;65.03;99108.64;107874;1274;95843;-68
2022/08/02 10:35:09;;;;;;;15.30;8.70;;;;;;;22.52;65.28;99111.77;107982;1274;107596;-68
2022/08/02 10:37:59;;;;;;;16.00;9.10;;;;;;;22.61;65.28;99113.63;107968;1274;95945;-68
2022/08/02 10:40:51;;;;;;;16.30;9.00;;;;;;;22.62;64.94;99111.80;107983;1274;95667;-68
2022/08/02 10:43:31;;;;;;;16.30;9.10;;;;;;;22.64;64.84;99111.48;107973;1274;111308;-68
2022/08/02 10:46:21;;;;;;;16.30;9.70;;;;;;;22.62;65.21;99102.46;107987;1274;95972;-68
2022/08/02 10:49:15;;;;;;;16.90;9.70;;;;;;;22.67;65.05;99105.17;107992;1274;106617;-68
2022/08/02 10:52:06;;;;;;;16.90;10.30;;;;;;;22.64;65.17;99105.45;107995;1274;96022;-68
2022/08/02 10:54:48;;;;;;;15.30;9.70;;;;;;;22.69;65.13;99115.52;108003;1274;95592;-68
2022/08/02 10:57:25;;;;;;;17.00;10.30;;;;;;;22.67;65.12;99112.40;107968;1274;111272;-69
2022/08/02 11:00:02;;;;;;;16.30;10.20;;;;;;;22.66;65.15;99109.66;108018;1274;95806;-68
2022/08/02 11:02:38;;;;;;;20.20;10.30;;;;;;;22.71;65.32;99110.74;107653;1274;107867;-68
2022/08/02 11:05:27;;;;;;;17.00;9.90;;;;;;;22.75;64.87;99108.15;107835;1274;95642;-67
2022/08/02 11:08:18;;;;;;;17.20;9.60;;;;;;;22.81;65.09;99106.81;107869;1274;95637;-67
2022/08/02 11:10:46;;;;;;;17.50;10.00;;;;;;;22.87;64.92;99104.67;107960;1274;111576;-68
2022/08/02 11:13:16;;;;;;;18.20;10.20;;;;;;;22.90;65.07;99105.87;107838;1272;96488;-68
2022/08/02 11:16:00;;;;;;;18.50;10.60;;;;;;;22.95;64.95;99101.05;107866;1274;107774;-67
2022/08/02 11:19:02;;;;;;;17.30;10.00;;;;;;;22.98;65.35;99103.84;107918;1274;95981;-68
2022/08/02 11:21:35;;;;;;;16.20;9.60;;;;;;;22.99;65.12;99097.05;107840;1276;95585;-68
2022/08/02 11:24:28;;;;;;;19.80;10.30;;;;;;;22.99;65.00;99099.56;107930;1274;111376;-69
2022/08/02 11:26:58;;;;;;;15.70;9.80;;;;;;;22.96;65.06;99094.51;107938;1272;95655;-68
2022/08/02 11:29:39;;;;;;;19.20;11.10;;;;;;;22.95;65.20;99089.95;107939;1274;108058;-68
2022/08/02 11:32:18;;;;;;;18.10;10.50;;;;;;;23.05;65.12;99098.48;107937;1274;95673;-67
2022/08/02 11:34:51;;;;;;;18.80;10.80;;;;;;;23.06;65.26;99094.95;107930;1274;95801;-67
2022/08/02 11:37:28;;;;;;;;;;;;;;;23.06;65.06;99093.31;107772;1274;111955;-67